Zion National Park, Utah
Current Conditions -  °F | °C
As of 9:15 AM on Sunday 23 Nov 2014 (Local Time) from KAZC Reporting Station
Clear Clear  
Wind Chill: 36°   Ceiling: Unl
Heat Index: 43°   Visibility: 10mi
Dew Point: 13°   Wind: 15mph
Humidity: 29%   Direction: 320°NW
Pressure: 30.23"   Gusts: 22mph
Location:  37.1888°N, 113°W
Report Text: KAZC 231615Z AUTO 32013G19KT 10SM CLR 06/M11 A3023 RMK AO2 T00621107
Loading
Personal Weather Stations






























Interactive Weather Map New forecast layout! Learn more

10-Day Weather Forecast

Advertisements
Track Severe Weather on mobile